Impacts TAF Board
For situational awareness. Not to be used for flight planning purposes.
IDs:

KLAS - Las Vegas/McCarran I, NV, US

Issued at 0205 UTC 19 Feb 2019
Updated at 0224 UTC 19 Feb 2019
Potential Impact None Slight Moderate High
Time0156Z 19/03Z 19/04Z 19/05Z 19/06Z 19/07Z 19/08Z 19/09Z 19/10Z 19/11Z 19/12Z 19/13Z 19/14Z 19/15Z>>
Type OBS PRVL PRVL PRVL PRVL PRVL PRVL PRVL PRVL PRVL PRVL PRVL PRVL PRVL
VIS 10 >6 >6 >6 >6 >6 >6 >6 >6 >6 >6 >6 >6 >6
CIG 220 220 220 220 220 220 220 220 220 220 220 220 220 220
Cover BKN BKN BKN BKN BKN BKN BKN BKN BKN BKN BKN BKN BKN BKN
FltCat VFR VFR VFR VFR VFR VFR VFR VFR VFR VFR VFR VFR VFR VFR
WX -- -- -- -- -- -- -- -- -- -- -- -- -- --
WDir 320 330 330 330 330 330 330 330 330 330 330 330 330 330
WSpd 17 13 13 13 13 13 13 13 13 13 13 13 13 13
WGst 25 20 20 20 20 20 20 20 20 20 20 20 20 20
Raw TAF
KLAS 190205Z 1902/2006 33013G20KT P6SM SCT120 BKN220
  FM192200 34011KT P6SM FEW100 FEW250
  FM200500 23006KT P6SM BKN250


Raw METAR
KLAS 190156Z 32017G25KT 10SM FEW080 SCT120 BKN220 06/M06 A2994 RMK AO2 PK WND 32030/0126 SLP144 VCSH T00561056 $
KLAS 190056Z 33013G21KT 10SM FEW080 SCT120 BKN220 07/M06 A2993 RMK AO2 PK WND 34026/0041 SLP139 VCSH T00671056 $
KLAS 182356Z 34014G22KT 10SM FEW080 SCT120 SCT220 08/M09 A2992 RMK AO2 PK WND 32026/2307 SLP137 VCSH T00781094 10094 20067 56007 $

METAR Board
Radar Display
Forecast Discussion
For situational awareness. Not to be used for flight planning purposes.